sensor_id;sensor_type;location;lat;lon;timestamp;temperature;humidity
72936;DHT22;61085;48.804;9.228;2023-04-06T00:01:35;4.50;90.40
72936;DHT22;61085;48.804;9.228;2023-04-06T00:04:01;4.40;90.50
72936;DHT22;61085;48.804;9.228;2023-04-06T00:06:27;4.40;91.10
72936;DHT22;61085;48.804;9.228;2023-04-06T00:08:53;4.30;91.50
72936;DHT22;61085;48.804;9.228;2023-04-06T00:11:18;4.30;91.80
72936;DHT22;61085;48.804;9.228;2023-04-06T00:13:45;4.30;91.90
72936;DHT22;61085;48.804;9.228;2023-04-06T00:16:10;4.20;91.80
72936;DHT22;61085;48.804;9.228;2023-04-06T00:18:36;4.10;92.20
72936;DHT22;61085;48.804;9.228;2023-04-06T00:21:02;3.90;92.30
72936;DHT22;61085;48.804;9.228;2023-04-06T00:23:28;3.80;92.70
72936;DHT22;61085;48.804;9.228;2023-04-06T00:25:53;3.70;93.00
72936;DHT22;61085;48.804;9.228;2023-04-06T00:28:19;3.60;93.20
72936;DHT22;61085;48.804;9.228;2023-04-06T00:30:51;3.70;93.00
72936;DHT22;61085;48.804;9.228;2023-04-06T00:33:21;3.70;92.70
72936;DHT22;61085;48.804;9.228;2023-04-06T00:35:48;3.60;92.80
72936;DHT22;61085;48.804;9.228;2023-04-06T00:38:14;3.60;92.80
72936;DHT22;61085;48.804;9.228;2023-04-06T00:40:41;3.70;92.70
72936;DHT22;61085;48.804;9.228;2023-04-06T00:43:07;3.70;92.70
72936;DHT22;61085;48.804;9.228;2023-04-06T00:45:34;3.70;92.70
72936;DHT22;61085;48.804;9.228;2023-04-06T00:48:00;3.80;92.80
72936;DHT22;61085;48.804;9.228;2023-04-06T00:50:27;3.70;93.10
72936;DHT22;61085;48.804;9.228;2023-04-06T00:52:53;3.70;93.30
72936;DHT22;61085;48.804;9.228;2023-04-06T00:55:19;3.70;93.40
72936;DHT22;61085;48.804;9.228;2023-04-06T00:57:44;3.70;93.60
72936;DHT22;61085;48.804;9.228;2023-04-06T01:00:11;3.70;93.80
72936;DHT22;61085;48.804;9.228;2023-04-06T01:02:38;3.70;93.80
72936;DHT22;61085;48.804;9.228;2023-04-06T01:05:04;3.60;94.00
72936;DHT22;61085;48.804;9.228;2023-04-06T01:07:30;3.60;94.30
72936;DHT22;61085;48.804;9.228;2023-04-06T01:09:55;3.50;94.90
72936;DHT22;61085;48.804;9.228;2023-04-06T01:12:21;3.40;95.30
72936;DHT22;61085;48.804;9.228;2023-04-06T01:14:47;3.40;95.90
72936;DHT22;61085;48.804;9.228;2023-04-06T01:17:13;3.30;96.10
72936;DHT22;61085;48.804;9.228;2023-04-06T01:19:39;3.40;96.30
72936;DHT22;61085;48.804;9.228;2023-04-06T01:22:06;3.50;96.40
72936;DHT22;61085;48.804;9.228;2023-04-06T01:24:32;3.40;96.60
72936;DHT22;61085;48.804;9.228;2023-04-06T01:26:58;3.20;97.30
72936;DHT22;61085;48.804;9.228;2023-04-06T01:29:24;3.20;97.50
72936;DHT22;61085;48.804;9.228;2023-04-06T01:31:50;3.10;97.70
72936;DHT22;61085;48.804;9.228;2023-04-06T01:34:15;3.10;97.80
72936;DHT22;61085;48.804;9.228;2023-04-06T01:36:41;3.30;97.80
72936;DHT22;61085;48.804;9.228;2023-04-06T01:39:07;3.10;97.70
72936;DHT22;61085;48.804;9.228;2023-04-06T01:41:33;3.20;97.20
72936;DHT22;61085;48.804;9.228;2023-04-06T01:43:58;3.10;97.40
72936;DHT22;61085;48.804;9.228;2023-04-06T01:46:24;3.20;96.90
72936;DHT22;61085;48.804;9.228;2023-04-06T01:48:50;3.10;97.30
72936;DHT22;61085;48.804;9.228;2023-04-06T01:51:16;3.10;97.10
72936;DHT22;61085;48.804;9.228;2023-04-06T01:53:41;3.10;97.10
72936;DHT22;61085;48.804;9.228;2023-04-06T01:56:07;3.10;97.20
72936;DHT22;61085;48.804;9.228;2023-04-06T01:58:33;3.10;97.60
72936;DHT22;61085;48.804;9.228;2023-04-06T02:00:58;3.00;97.90
72936;DHT22;61085;48.804;9.228;2023-04-06T02:03:24;2.90;98.40
72936;DHT22;61085;48.804;9.228;2023-04-06T02:05:50;2.90;98.80
72936;DHT22;61085;48.804;9.228;2023-04-06T02:08:15;2.90;99.00
72936;DHT22;61085;48.804;9.228;2023-04-06T02:10:41;2.90;99.00
72936;DHT22;61085;48.804;9.228;2023-04-06T02:13:07;3.00;99.10
72936;DHT22;61085;48.804;9.228;2023-04-06T02:15:32;2.90;99.50
72936;DHT22;61085;48.804;9.228;2023-04-06T02:17:59;2.90;99.60
72936;DHT22;61085;48.804;9.228;2023-04-06T02:20:25;2.90;99.60
72936;DHT22;61085;48.804;9.228;2023-04-06T02:22:51;2.90;99.60
72936;DHT22;61085;48.804;9.228;2023-04-06T02:25:16;2.90;99.70
72936;DHT22;61085;48.804;9.228;2023-04-06T02:27:42;3.00;99.70
72936;DHT22;61085;48.804;9.228;2023-04-06T02:30:08;3.00;99.50
72936;DHT22;61085;48.804;9.228;2023-04-06T02:32:34;2.90;99.50
72936;DHT22;61085;48.804;9.228;2023-04-06T02:34:59;2.90;99.50
72936;DHT22;61085;48.804;9.228;2023-04-06T02:37:25;3.00;99.70
72936;DHT22;61085;48.804;9.228;2023-04-06T02:39:51;3.00;99.60
72936;DHT22;61085;48.804;9.228;2023-04-06T02:42:17;3.00;99.60
72936;DHT22;61085;48.804;9.228;2023-04-06T02:44:43;2.80;99.80
72936;DHT22;61085;48.804;9.228;2023-04-06T02:47:09;2.80;99.90
72936;DHT22;61085;48.804;9.228;2023-04-06T02:49:35;2.70;99.90
72936;DHT22;61085;48.804;9.228;2023-04-06T02:52:02;2.70;99.90
72936;DHT22;61085;48.804;9.228;2023-04-06T02:54:27;2.90;99.90
72936;DHT22;61085;48.804;9.228;2023-04-06T02:56:53;2.80;99.90
72936;DHT22;61085;48.804;9.228;2023-04-06T02:59:19;2.80;99.90
72936;DHT22;61085;48.804;9.228;2023-04-06T03:01:47;2.80;99.90
72936;DHT22;61085;48.804;9.228;2023-04-06T03:04:13;2.80;99.90
72936;DHT22;61085;48.804;9.228;2023-04-06T03:06:38;2.80;99.90
72936;DHT22;61085;48.804;9.228;2023-04-06T03:09:06;2.70;99.90
72936;DHT22;61085;48.804;9.228;2023-04-06T03:11:31;2.60;99.90
72936;DHT22;61085;48.804;9.228;2023-04-06T03:13:57;2.60;99.90
72936;DHT22;61085;48.804;9.228;2023-04-06T03:16:22;2.60;99.90
72936;DHT22;61085;48.804;9.228;2023-04-06T03:18:48;2.60;99.90
72936;DHT22;61085;48.804;9.228;2023-04-06T03:21:14;2.60;99.90
72936;DHT22;61085;48.804;9.228;2023-04-06T03:23:42;2.80;99.90
72936;DHT22;61085;48.804;9.228;2023-04-06T03:26:08;2.60;99.90
72936;DHT22;61085;48.804;9.228;2023-04-06T03:28:34;2.60;99.90
72936;DHT22;61085;48.804;9.228;2023-04-06T03:30:59;2.50;99.90
72936;DHT22;61085;48.804;9.228;2023-04-06T03:33:25;2.50;99.90
72936;DHT22;61085;48.804;9.228;2023-04-06T03:35:54;2.50;99.90
72936;DHT22;61085;48.804;9.228;2023-04-06T03:38:20;2.50;99.90
72936;DHT22;61085;48.804;9.228;2023-04-06T03:40:46;2.50;99.90
72936;DHT22;61085;48.804;9.228;2023-04-06T03:43:11;2.60;99.90
72936;DHT22;61085;48.804;9.228;2023-04-06T03:45:37;2.50;99.90
72936;DHT22;61085;48.804;9.228;2023-04-06T03:48:03;2.40;99.90
72936;DHT22;61085;48.804;9.228;2023-04-06T03:50:29;2.40;99.90
72936;DHT22;61085;48.804;9.228;2023-04-06T03:52:54;2.40;99.90
72936;DHT22;61085;48.804;9.228;2023-04-06T03:55:20;2.40;99.90
72936;DHT22;61085;48.804;9.228;2023-04-06T03:57:46;2.40;99.90
72936;DHT22;61085;48.804;9.228;2023-04-06T04:00:12;2.30;99.90
72936;DHT22;61085;48.804;9.228;2023-04-06T04:02:38;2.40;99.90
72936;DHT22;61085;48.804;9.228;2023-04-06T04:05:04;2.30;99.90
72936;DHT22;61085;48.804;9.228;2023-04-06T04:07:30;2.40;99.90
72936;DHT22;61085;48.804;9.228;2023-04-06T04:09:56;2.30;99.90
72936;DHT22;61085;48.804;9.228;2023-04-06T04:12:21;2.40;99.90
72936;DHT22;61085;48.804;9.228;2023-04-06T04:14:47;2.30;99.90
72936;DHT22;61085;48.804;9.228;2023-04-06T04:17:13;2.30;99.90
72936;DHT22;61085;48.804;9.228;2023-04-06T04:19:38;2.30;99.90
72936;DHT22;61085;48.804;9.228;2023-04-06T04:22:04;2.30;99.90
72936;DHT22;61085;48.804;9.228;2023-04-06T04:24:30;2.30;99.90
72936;DHT22;61085;48.804;9.228;2023-04-06T04:26:56;2.30;99.90
72936;DHT22;61085;48.804;9.228;2023-04-06T04:29:22;2.30;99.90
72936;DHT22;61085;48.804;9.228;2023-04-06T04:31:48;2.10;99.90
72936;DHT22;61085;48.804;9.228;2023-04-06T04:34:14;2.20;99.90
72936;DHT22;61085;48.804;9.228;2023-04-06T04:36:41;2.20;99.90
72936;DHT22;61085;48.804;9.228;2023-04-06T04:39:09;2.20;99.90
72936;DHT22;61085;48.804;9.228;2023-04-06T04:41:35;2.20;99.90
72936;DHT22;61085;48.804;9.228;2023-04-06T04:44:01;2.20;99.90
72936;DHT22;61085;48.804;9.228;2023-04-06T04:46:26;2.30;99.90
72936;DHT22;61085;48.804;9.228;2023-04-06T04:48:52;2.30;99.90
72936;DHT22;61085;48.804;9.228;2023-04-06T04:51:17;2.40;99.90
72936;DHT22;61085;48.804;9.228;2023-04-06T04:53:45;2.40;99.90
72936;DHT22;61085;48.804;9.228;2023-04-06T04:56:10;2.40;99.90
72936;DHT22;61085;48.804;9.228;2023-04-06T04:58:36;2.70;99.90
72936;DHT22;61085;48.804;9.228;2023-04-06T05:01:02;2.50;99.90
72936;DHT22;61085;48.804;9.228;2023-04-06T05:03:27;2.70;99.90
72936;DHT22;61085;48.804;9.228;2023-04-06T05:05:53;2.80;99.90
72936;DHT22;61085;48.804;9.228;2023-04-06T05:08:19;3.00;99.90
72936;DHT22;61085;48.804;9.228;2023-04-06T05:10:44;3.10;99.90
72936;DHT22;61085;48.804;9.228;2023-04-06T05:13:11;3.20;99.90
72936;DHT22;61085;48.804;9.228;2023-04-06T05:15:36;3.40;99.90
72936;DHT22;61085;48.804;9.228;2023-04-06T05:18:06;4.00;98.50
72936;DHT22;61085;48.804;9.228;2023-04-06T05:20:32;4.70;96.80
72936;DHT22;61085;48.804;9.228;2023-04-06T05:22:57;5.60;94.40
72936;DHT22;61085;48.804;9.228;2023-04-06T05:25:23;6.50;91.10
72936;DHT22;61085;48.804;9.228;2023-04-06T05:27:51;7.30;84.10
72936;DHT22;61085;48.804;9.228;2023-04-06T05:30:17;8.00;78.60
72936;DHT22;61085;48.804;9.228;2023-04-06T05:32:43;8.50;73.50
72936;DHT22;61085;48.804;9.228;2023-04-06T05:35:10;9.30;65.60
72936;DHT22;61085;48.804;9.228;2023-04-06T05:37:36;10.00;60.20
72936;DHT22;61085;48.804;9.228;2023-04-06T05:40:01;10.30;56.10
72936;DHT22;61085;48.804;9.228;2023-04-06T05:42:27;11.10;52.80
72936;DHT22;61085;48.804;9.228;2023-04-06T05:44:53;11.40;50.60
72936;DHT22;61085;48.804;9.228;2023-04-06T05:47:18;11.20;50.20
72936;DHT22;61085;48.804;9.228;2023-04-06T05:49:44;11.70;48.30
72936;DHT22;61085;48.804;9.228;2023-04-06T05:52:10;12.40;47.60
72936;DHT22;61085;48.804;9.228;2023-04-06T05:54:39;12.40;45.40
72936;DHT22;61085;48.804;9.228;2023-04-06T05:57:05;13.40;43.50
72936;DHT22;61085;48.804;9.228;2023-04-06T05:59:31;13.60;42.00
72936;DHT22;61085;48.804;9.228;2023-04-06T06:01:57;13.80;40.80
72936;DHT22;61085;48.804;9.228;2023-04-06T06:04:22;14.60;38.80
72936;DHT22;61085;48.804;9.228;2023-04-06T06:06:48;14.80;39.40
72936;DHT22;61085;48.804;9.228;2023-04-06T06:09:14;14.10;39.00
72936;DHT22;61085;48.804;9.228;2023-04-06T06:11:40;14.70;38.30
72936;DHT22;61085;48.804;9.228;2023-04-06T06:14:06;16.00;35.90
72936;DHT22;61085;48.804;9.228;2023-04-06T06:16:32;16.00;34.30
72936;DHT22;61085;48.804;9.228;2023-04-06T06:18:57;15.70;35.30
72936;DHT22;61085;48.804;9.228;2023-04-06T06:21:23;15.80;36.50
72936;DHT22;61085;48.804;9.228;2023-04-06T06:23:49;16.50;33.60
72936;DHT22;61085;48.804;9.228;2023-04-06T06:26:15;16.70;31.90
72936;DHT22;61085;48.804;9.228;2023-04-06T06:28:41;16.40;32.90
72936;DHT22;61085;48.804;9.228;2023-04-06T06:31:09;16.70;33.20
72936;DHT22;61085;48.804;9.228;2023-04-06T06:33:34;16.60;32.00
72936;DHT22;61085;48.804;9.228;2023-04-06T06:36:00;17.00;31.60
72936;DHT22;61085;48.804;9.228;2023-04-06T06:38:26;17.80;30.80
72936;DHT22;61085;48.804;9.228;2023-04-06T06:40:52;18.00;29.50
72936;DHT22;61085;48.804;9.228;2023-04-06T06:43:26;16.30;30.50
72936;DHT22;61085;48.804;9.228;2023-04-06T06:45:52;15.70;32.50
72936;DHT22;61085;48.804;9.228;2023-04-06T06:48:18;15.80;32.90
72936;DHT22;61085;48.804;9.228;2023-04-06T06:50:43;15.80;32.90
72936;DHT22;61085;48.804;9.228;2023-04-06T06:53:09;15.00;33.50
72936;DHT22;61085;48.804;9.228;2023-04-06T06:55:36;15.00;34.00
72936;DHT22;61085;48.804;9.228;2023-04-06T06:58:02;15.00;34.10
72936;DHT22;61085;48.804;9.228;2023-04-06T07:00:27;13.70;35.90
72936;DHT22;61085;48.804;9.228;2023-04-06T07:02:59;13.80;37.20
72936;DHT22;61085;48.804;9.228;2023-04-06T07:05:25;13.60;36.30
72936;DHT22;61085;48.804;9.228;2023-04-06T07:07:57;13.90;36.90
72936;DHT22;61085;48.804;9.228;2023-04-06T07:10:23;14.20;37.80
72936;DHT22;61085;48.804;9.228;2023-04-06T07:12:48;14.60;36.30
72936;DHT22;61085;48.804;9.228;2023-04-06T07:15:14;13.40;37.30
72936;DHT22;61085;48.804;9.228;2023-04-06T07:17:40;13.30;38.80
72936;DHT22;61085;48.804;9.228;2023-04-06T07:20:11;13.00;38.70
72936;DHT22;61085;48.804;9.228;2023-04-06T07:22:38;12.30;39.50
72936;DHT22;61085;48.804;9.228;2023-04-06T07:25:04;11.20;41.60
72936;DHT22;61085;48.804;9.228;2023-04-06T07:27:30;11.20;42.90
72936;DHT22;61085;48.804;9.228;2023-04-06T07:29:56;11.10;43.00
72936;DHT22;61085;48.804;9.228;2023-04-06T07:32:21;11.60;42.70
72936;DHT22;61085;48.804;9.228;2023-04-06T07:34:47;12.00;42.40
72936;DHT22;61085;48.804;9.228;2023-04-06T07:37:13;12.30;41.20
72936;DHT22;61085;48.804;9.228;2023-04-06T07:39:38;12.50;41.30
72936;DHT22;61085;48.804;9.228;2023-04-06T07:42:04;12.60;40.30
72936;DHT22;61085;48.804;9.228;2023-04-06T07:44:30;12.40;40.20
72936;DHT22;61085;48.804;9.228;2023-04-06T07:46:56;12.10;41.30
72936;DHT22;61085;48.804;9.228;2023-04-06T07:49:22;12.30;41.50
72936;DHT22;61085;48.804;9.228;2023-04-06T07:51:48;12.50;41.50
72936;DHT22;61085;48.804;9.228;2023-04-06T07:54:14;12.40;41.00
72936;DHT22;61085;48.804;9.228;2023-04-06T07:56:39;12.20;41.40
72936;DHT22;61085;48.804;9.228;2023-04-06T07:59:05;12.70;42.10
72936;DHT22;61085;48.804;9.228;2023-04-06T08:01:31;12.70;41.00
72936;DHT22;61085;48.804;9.228;2023-04-06T08:03:57;13.00;41.30
72936;DHT22;61085;48.804;9.228;2023-04-06T08:06:23;13.00;40.70
72936;DHT22;61085;48.804;9.228;2023-04-06T08:08:48;12.80;40.50
72936;DHT22;61085;48.804;9.228;2023-04-06T08:11:14;12.00;41.40
72936;DHT22;61085;48.804;9.228;2023-04-06T08:13:40;12.10;42.90
72936;DHT22;61085;48.804;9.228;2023-04-06T08:16:05;11.90;43.40
72936;DHT22;61085;48.804;9.228;2023-04-06T08:18:32;12.50;43.00
72936;DHT22;61085;48.804;9.228;2023-04-06T08:20:57;12.50;42.80
72936;DHT22;61085;48.804;9.228;2023-04-06T08:23:23;13.00;42.60
72936;DHT22;61085;48.804;9.228;2023-04-06T08:25:49;13.20;41.50
72936;DHT22;61085;48.804;9.228;2023-04-06T08:28:14;13.60;40.90
72936;DHT22;61085;48.804;9.228;2023-04-06T08:30:41;13.30;41.30
72936;DHT22;61085;48.804;9.228;2023-04-06T08:33:07;13.60;41.80
72936;DHT22;61085;48.804;9.228;2023-04-06T08:35:33;14.20;40.50
72936;DHT22;61085;48.804;9.228;2023-04-06T08:37:59;14.30;40.00
72936;DHT22;61085;48.804;9.228;2023-04-06T08:40:27;14.10;38.50
72936;DHT22;61085;48.804;9.228;2023-04-06T08:42:55;13.70;40.20
72936;DHT22;61085;48.804;9.228;2023-04-06T08:45:21;13.60;40.60
72936;DHT22;61085;48.804;9.228;2023-04-06T08:47:49;13.40;41.00
72936;DHT22;61085;48.804;9.228;2023-04-06T08:50:16;13.60;42.00
72936;DHT22;61085;48.804;9.228;2023-04-06T08:52:49;14.30;42.00
72936;DHT22;61085;48.804;9.228;2023-04-06T08:55:15;13.90;39.50
72936;DHT22;61085;48.804;9.228;2023-04-06T08:57:42;13.40;39.00
72936;DHT22;61085;48.804;9.228;2023-04-06T09:00:10;13.10;40.70
72936;DHT22;61085;48.804;9.228;2023-04-06T09:02:40;13.40;41.20
72936;DHT22;61085;48.804;9.228;2023-04-06T09:05:08;13.90;40.80
72936;DHT22;61085;48.804;9.228;2023-04-06T09:07:36;13.60;37.20
72936;DHT22;61085;48.804;9.228;2023-04-06T09:10:02;13.30;35.60
72936;DHT22;61085;48.804;9.228;2023-04-06T09:12:30;13.60;37.70
72936;DHT22;61085;48.804;9.228;2023-04-06T09:14:57;14.30;38.00
72936;DHT22;61085;48.804;9.228;2023-04-06T09:17:27;14.50;35.80
72936;DHT22;61085;48.804;9.228;2023-04-06T09:19:53;14.50;36.20
72936;DHT22;61085;48.804;9.228;2023-04-06T09:22:20;14.30;35.10
72936;DHT22;61085;48.804;9.228;2023-04-06T09:24:51;13.90;35.70
72936;DHT22;61085;48.804;9.228;2023-04-06T09:27:16;14.00;36.10
72936;DHT22;61085;48.804;9.228;2023-04-06T09:29:43;13.50;35.70
72936;DHT22;61085;48.804;9.228;2023-04-06T09:32:10;13.80;36.00
72936;DHT22;61085;48.804;9.228;2023-04-06T09:34:39;14.00;37.20
72936;DHT22;61085;48.804;9.228;2023-04-06T09:39:40;14.10;36.50
72936;DHT22;61085;48.804;9.228;2023-04-06T09:42:05;14.30;34.40
72936;DHT22;61085;48.804;9.228;2023-04-06T09:44:31;14.10;32.70
72936;DHT22;61085;48.804;9.228;2023-04-06T09:46:57;14.50;37.40
72936;DHT22;61085;48.804;9.228;2023-04-06T09:49:23;14.20;32.00
72936;DHT22;61085;48.804;9.228;2023-04-06T09:51:55;13.80;32.10
72936;DHT22;61085;48.804;9.228;2023-04-06T09:54:23;13.80;34.00
72936;DHT22;61085;48.804;9.228;2023-04-06T09:57:11;14.00;34.70
72936;DHT22;61085;48.804;9.228;2023-04-06T10:00:00;13.80;31.80
72936;DHT22;61085;48.804;9.228;2023-04-06T10:05:33;13.00;32.40
72936;DHT22;61085;48.804;9.228;2023-04-06T10:08:03;13.00;32.20
72936;DHT22;61085;48.804;9.228;2023-04-06T10:10:31;13.40;34.30
72936;DHT22;61085;48.804;9.228;2023-04-06T10:12:57;13.40;33.00
72936;DHT22;61085;48.804;9.228;2023-04-06T10:15:23;13.50;32.10
72936;DHT22;61085;48.804;9.228;2023-04-06T10:17:49;13.50;31.80
72936;DHT22;61085;48.804;9.228;2023-04-06T10:20:21;13.30;32.30
72936;DHT22;61085;48.804;9.228;2023-04-06T10:22:55;13.60;35.30
72936;DHT22;61085;48.804;9.228;2023-04-06T10:25:27;13.40;32.50
72936;DHT22;61085;48.804;9.228;2023-04-06T10:28:00;13.40;33.70
72936;DHT22;61085;48.804;9.228;2023-04-06T10:30:26;13.20;32.90
72936;DHT22;61085;48.804;9.228;2023-04-06T10:32:58;13.20;31.50
72936;DHT22;61085;48.804;9.228;2023-04-06T10:35:24;12.70;32.20
72936;DHT22;61085;48.804;9.228;2023-04-06T10:40:40;12.60;32.60
72936;DHT22;61085;48.804;9.228;2023-04-06T10:43:23;12.70;32.90
72936;DHT22;61085;48.804;9.228;2023-04-06T10:45:56;12.80;33.20
72936;DHT22;61085;48.804;9.228;2023-04-06T10:48:22;12.80;31.90
72936;DHT22;61085;48.804;9.228;2023-04-06T10:50:50;13.00;31.50
72936;DHT22;61085;48.804;9.228;2023-04-06T10:53:26;12.80;30.80
72936;DHT22;61085;48.804;9.228;2023-04-06T10:55:54;12.70;30.00
72936;DHT22;61085;48.804;9.228;2023-04-06T10:58:24;12.60;30.30
72936;DHT22;61085;48.804;9.228;2023-04-06T11:00:54;12.70;31.10
72936;DHT22;61085;48.804;9.228;2023-04-06T11:03:21;12.70;30.80
72936;DHT22;61085;48.804;9.228;2023-04-06T11:13:42;13.50;31.00
72936;DHT22;61085;48.804;9.228;2023-04-06T11:16:19;13.20;29.90
72936;DHT22;61085;48.804;9.228;2023-04-06T11:21:18;12.70;29.60
72936;DHT22;61085;48.804;9.228;2023-04-06T11:23:44;12.70;29.40
72936;DHT22;61085;48.804;9.228;2023-04-06T11:31:06;12.50;29.80
72936;DHT22;61085;48.804;9.228;2023-04-06T11:33:38;12.50;29.70
72936;DHT22;61085;48.804;9.228;2023-04-06T11:36:05;12.50;29.80
72936;DHT22;61085;48.804;9.228;2023-04-06T11:38:31;12.20;29.10
72936;DHT22;61085;48.804;9.228;2023-04-06T11:40:57;12.40;29.60
72936;DHT22;61085;48.804;9.228;2023-04-06T11:43:30;12.50;29.60
72936;DHT22;61085;48.804;9.228;2023-04-06T11:46:03;12.80;30.10
72936;DHT22;61085;48.804;9.228;2023-04-06T11:48:30;13.30;30.80
72936;DHT22;61085;48.804;9.228;2023-04-06T11:50:59;13.60;29.80
72936;DHT22;61085;48.804;9.228;2023-04-06T11:53:29;13.40;29.50
72936;DHT22;61085;48.804;9.228;2023-04-06T11:55:58;13.50;30.00
72936;DHT22;61085;48.804;9.228;2023-04-06T11:58:25;13.20;29.80
72936;DHT22;61085;48.804;9.228;2023-04-06T12:00:50;13.20;30.30
72936;DHT22;61085;48.804;9.228;2023-04-06T12:03:16;13.10;29.80
72936;DHT22;61085;48.804;9.228;2023-04-06T12:05:43;13.10;30.30
72936;DHT22;61085;48.804;9.228;2023-04-06T12:08:09;13.30;29.50
72936;DHT22;61085;48.804;9.228;2023-04-06T12:10:34;13.60;29.50
72936;DHT22;61085;48.804;9.228;2023-04-06T12:15:26;13.40;29.70
72936;DHT22;61085;48.804;9.228;2023-04-06T12:17:52;13.20;30.00
72936;DHT22;61085;48.804;9.228;2023-04-06T12:20:17;13.40;31.10
72936;DHT22;61085;48.804;9.228;2023-04-06T12:22:43;13.70;30.80
72936;DHT22;61085;48.804;9.228;2023-04-06T12:25:09;13.90;29.40
72936;DHT22;61085;48.804;9.228;2023-04-06T12:27:35;13.80;29.40
72936;DHT22;61085;48.804;9.228;2023-04-06T12:30:00;13.80;29.30
72936;DHT22;61085;48.804;9.228;2023-04-06T12:32:26;13.60;29.60
72936;DHT22;61085;48.804;9.228;2023-04-06T12:34:52;14.00;29.50
72936;DHT22;61085;48.804;9.228;2023-04-06T12:37:18;14.20;30.00
72936;DHT22;61085;48.804;9.228;2023-04-06T12:39:44;14.20;29.10
72936;DHT22;61085;48.804;9.228;2023-04-06T12:42:11;14.20;29.00
72936;DHT22;61085;48.804;9.228;2023-04-06T12:44:37;14.10;28.80
72936;DHT22;61085;48.804;9.228;2023-04-06T12:47:03;13.90;28.60
72936;DHT22;61085;48.804;9.228;2023-04-06T12:49:30;13.50;28.60
72936;DHT22;61085;48.804;9.228;2023-04-06T12:51:55;13.40;28.80
72936;DHT22;61085;48.804;9.228;2023-04-06T12:54:21;13.50;29.10
72936;DHT22;61085;48.804;9.228;2023-04-06T12:56:47;13.90;29.40
72936;DHT22;61085;48.804;9.228;2023-04-06T12:59:12;14.10;28.50
72936;DHT22;61085;48.804;9.228;2023-04-06T13:01:38;14.10;28.30
72936;DHT22;61085;48.804;9.228;2023-04-06T13:04:04;14.20;28.60
72936;DHT22;61085;48.804;9.228;2023-04-06T13:06:29;14.30;28.30
72936;DHT22;61085;48.804;9.228;2023-04-06T13:08:55;14.60;28.60
72936;DHT22;61085;48.804;9.228;2023-04-06T13:11:21;14.20;28.10
72936;DHT22;61085;48.804;9.228;2023-04-06T13:13:49;13.90;28.20
72936;DHT22;61085;48.804;9.228;2023-04-06T13:16:15;14.00;28.40
72936;DHT22;61085;48.804;9.228;2023-04-06T13:18:40;14.10;28.40
72936;DHT22;61085;48.804;9.228;2023-04-06T13:21:07;14.10;28.50
72936;DHT22;61085;48.804;9.228;2023-04-06T13:23:32;14.10;29.00
72936;DHT22;61085;48.804;9.228;2023-04-06T13:28:25;13.90;28.30
72936;DHT22;61085;48.804;9.228;2023-04-06T13:30:51;13.80;28.60
72936;DHT22;61085;48.804;9.228;2023-04-06T13:33:17;13.60;29.00
72936;DHT22;61085;48.804;9.228;2023-04-06T13:35:45;13.50;28.90
72936;DHT22;61085;48.804;9.228;2023-04-06T13:38:13;13.70;29.10
72936;DHT22;61085;48.804;9.228;2023-04-06T13:40:39;13.80;28.80
72936;DHT22;61085;48.804;9.228;2023-04-06T13:43:06;13.90;28.70
72936;DHT22;61085;48.804;9.228;2023-04-06T13:45:31;13.90;28.60
72936;DHT22;61085;48.804;9.228;2023-04-06T13:47:57;14.10;28.80
72936;DHT22;61085;48.804;9.228;2023-04-06T13:50:25;14.40;28.50
72936;DHT22;61085;48.804;9.228;2023-04-06T13:52:51;14.60;28.20
72936;DHT22;61085;48.804;9.228;2023-04-06T13:55:17;14.60;27.60
72936;DHT22;61085;48.804;9.228;2023-04-06T13:57:42;14.40;28.10
72936;DHT22;61085;48.804;9.228;2023-04-06T14:00:08;14.30;28.40
72936;DHT22;61085;48.804;9.228;2023-04-06T14:02:36;14.30;27.90
72936;DHT22;61085;48.804;9.228;2023-04-06T14:05:01;14.50;28.40
72936;DHT22;61085;48.804;9.228;2023-04-06T14:07:28;14.70;29.10
72936;DHT22;61085;48.804;9.228;2023-04-06T14:09:54;14.90;28.60
72936;DHT22;61085;48.804;9.228;2023-04-06T14:12:19;14.90;28.20
72936;DHT22;61085;48.804;9.228;2023-04-06T14:14:46;15.00;29.30
72936;DHT22;61085;48.804;9.228;2023-04-06T14:17:11;14.80;27.90
72936;DHT22;61085;48.804;9.228;2023-04-06T14:19:37;14.60;27.60
72936;DHT22;61085;48.804;9.228;2023-04-06T14:22:03;14.20;28.00
72936;DHT22;61085;48.804;9.228;2023-04-06T14:24:30;14.20;28.20
72936;DHT22;61085;48.804;9.228;2023-04-06T14:26:57;14.50;28.80
72936;DHT22;61085;48.804;9.228;2023-04-06T14:29:23;14.20;28.00
72936;DHT22;61085;48.804;9.228;2023-04-06T14:31:49;13.80;28.10
72936;DHT22;61085;48.804;9.228;2023-04-06T14:34:14;14.30;28.60
72936;DHT22;61085;48.804;9.228;2023-04-06T14:36:43;14.30;28.90
72936;DHT22;61085;48.804;9.228;2023-04-06T14:39:08;14.30;28.40
72936;DHT22;61085;48.804;9.228;2023-04-06T14:41:35;14.50;28.60
72936;DHT22;61085;48.804;9.228;2023-04-06T14:44:01;14.70;28.40
72936;DHT22;61085;48.804;9.228;2023-04-06T14:46:27;14.70;28.00
72936;DHT22;61085;48.804;9.228;2023-04-06T14:48:56;14.80;28.10
72936;DHT22;61085;48.804;9.228;2023-04-06T14:51:26;14.80;27.70
72936;DHT22;61085;48.804;9.228;2023-04-06T14:53:54;14.30;27.60
72936;DHT22;61085;48.804;9.228;2023-04-06T14:56:23;14.30;28.00
72936;DHT22;61085;48.804;9.228;2023-04-06T14:58:50;14.20;28.10
72936;DHT22;61085;48.804;9.228;2023-04-06T15:01:18;14.20;28.50
72936;DHT22;61085;48.804;9.228;2023-04-06T15:03:44;14.30;28.30
72936;DHT22;61085;48.804;9.228;2023-04-06T15:06:13;13.90;28.50
72936;DHT22;61085;48.804;9.228;2023-04-06T15:08:45;14.10;28.80
72936;DHT22;61085;48.804;9.228;2023-04-06T15:11:12;14.20;28.50
72936;DHT22;61085;48.804;9.228;2023-04-06T15:13:38;14.20;28.70
72936;DHT22;61085;48.804;9.228;2023-04-06T15:16:05;14.20;28.60
72936;DHT22;61085;48.804;9.228;2023-04-06T15:18:31;14.20;28.40
72936;DHT22;61085;48.804;9.228;2023-04-06T15:20:57;14.30;28.50
72936;DHT22;61085;48.804;9.228;2023-04-06T15:23:23;14.10;28.30
72936;DHT22;61085;48.804;9.228;2023-04-06T15:25:49;14.00;28.60
72936;DHT22;61085;48.804;9.228;2023-04-06T15:28:15;13.90;28.60
72936;DHT22;61085;48.804;9.228;2023-04-06T15:30:40;14.00;28.80
72936;DHT22;61085;48.804;9.228;2023-04-06T15:33:07;14.10;28.30
72936;DHT22;61085;48.804;9.228;2023-04-06T15:35:34;14.00;28.50
72936;DHT22;61085;48.804;9.228;2023-04-06T15:38:04;13.90;28.60
72936;DHT22;61085;48.804;9.228;2023-04-06T15:40:30;14.00;28.90
72936;DHT22;61085;48.804;9.228;2023-04-06T15:42:55;14.00;29.30
72936;DHT22;61085;48.804;9.228;2023-04-06T15:45:21;14.30;29.20
72936;DHT22;61085;48.804;9.228;2023-04-06T15:47:46;13.90;28.50
72936;DHT22;61085;48.804;9.228;2023-04-06T15:50:13;13.70;28.60
72936;DHT22;61085;48.804;9.228;2023-04-06T15:52:39;13.60;28.70
72936;DHT22;61085;48.804;9.228;2023-04-06T15:55:06;13.50;28.90
72936;DHT22;61085;48.804;9.228;2023-04-06T15:57:32;13.60;29.00
72936;DHT22;61085;48.804;9.228;2023-04-06T15:59:58;13.60;29.60
72936;DHT22;61085;48.804;9.228;2023-04-06T16:02:25;13.60;29.20